Time;durP1;ratioP1;P1;durP2;ratioP2;P2;SDS_P1;SDS_P2;PMS_P1;PMS_P2;Temp;Humidity;BMP_temperature;BMP_pressure;BME280_temperature;BME280_humidity;BME280_pressure;Samples;Min_cycle;Max_cycle;Signal;HPM_P1;HPM_P2
2023/07/04 00:01:13;;;;;;;4.20;2.20;;;;;;;20.77;64.18;98479.66;4965819;28;103229;-69
2023/07/04 00:03:44;;;;;;;2.77;1.90;;;;;;;20.64;64.63;98487.44;4969078;28;102768;-70
2023/07/04 00:06:14;;;;;;;2.45;1.92;;;;;;;20.48;65.48;98485.72;4970463;28;102934;-70
2023/07/04 00:08:43;;;;;;;2.20;1.80;;;;;;;20.71;64.70;98489.25;4966936;28;103007;-70
2023/07/04 00:11:12;;;;;;;3.70;1.90;;;;;;;20.83;64.13;98484.28;4969183;28;103269;-69
2023/07/04 00:13:49;;;;;;;2.38;1.90;;;;;;;20.84;64.34;98491.31;4974615;28;103823;-68
2023/07/04 00:16:17;;;;;;;3.00;1.90;;;;;;;20.66;65.35;98483.56;4973781;28;102915;-68
2023/07/04 00:18:46;;;;;;;2.83;2.20;;;;;;;20.23;66.90;98485.03;4964236;28;103371;-70
2023/07/04 00:21:14;;;;;;;2.40;1.77;;;;;;;20.39;66.39;98485.94;4970691;28;103176;-70
2023/07/04 00:23:45;;;;;;;3.33;2.20;;;;;;;20.67;65.02;98479.03;4967884;28;102722;-70
2023/07/04 00:26:17;;;;;;;2.47;1.90;;;;;;;20.62;65.38;98476.06;4971932;28;103999;-69
2023/07/04 00:28:45;;;;;;;3.07;2.17;;;;;;;20.29;66.36;98483.50;4973311;28;103642;-69
2023/07/04 00:31:18;;;;;;;3.33;2.10;;;;;;;20.26;66.92;98474.97;4972543;28;104372;-70
2023/07/04 00:33:47;;;;;;;2.38;1.63;;;;;;;20.60;65.76;98470.06;4970713;28;102800;-69
2023/07/04 00:36:17;;;;;;;2.00;1.80;;;;;;;20.71;64.75;98475.84;4969015;28;102768;-69
2023/07/04 00:38:48;;;;;;;3.42;2.35;;;;;;;20.39;66.46;98469.84;4989547;28;103301;-69
2023/07/04 00:41:21;;;;;;;2.23;1.53;;;;;;;20.81;65.01;98464.84;4968714;28;103899;-69
2023/07/04 00:44:00;;;;;;;3.00;2.00;;;;;;;20.35;66.04;98473.91;4966841;28;102830;-69
2023/07/04 00:46:38;;;;;;;1.93;1.60;;;;;;;20.62;65.69;98476.06;4972670;28;104231;-70
2023/07/04 00:49:19;;;;;;;2.33;1.85;;;;;;;20.77;65.02;98475.09;4973580;28;103294;-70
2023/07/04 00:51:55;;;;;;;3.20;1.93;;;;;;;20.70;65.59;98478.69;4969544;28;103385;-70
2023/07/04 00:54:25;;;;;;;3.17;1.90;;;;;;;20.77;65.60;98479.66;4972253;28;102878;-70
2023/07/04 00:57:06;;;;;;;1.95;1.65;;;;;;;20.55;66.57;98492.03;4972494;28;104191;-70
2023/07/04 00:59:36;;;;;;;2.00;1.80;;;;;;;20.67;66.41;98493.31;4972527;28;104409;-69
2023/07/04 01:02:06;;;;;;;3.42;2.10;;;;;;;20.12;68.76;98490.78;4966105;28;103046;-69
2023/07/04 01:04:34;;;;;;;2.10;1.90;;;;;;;20.37;67.81;98488.81;4974076;28;102934;-69
2023/07/04 01:07:15;;;;;;;2.15;1.73;;;;;;;20.45;68.28;98487.94;4976647;28;102679;-69
2023/07/04 01:09:50;;;;;;;2.33;2.00;;;;;;;20.53;67.79;98487.88;4972717;28;103332;-69
2023/07/04 01:12:19;;;;;;;2.50;1.90;;;;;;;20.59;67.54;98492.53;4990160;28;103205;-69
2023/07/04 01:14:49;;;;;;;2.20;1.90;;;;;;;20.64;67.51;98496.34;4974419;28;102697;-69
2023/07/04 01:17:18;;;;;;;2.75;2.15;;;;;;;20.76;66.99;98494.06;4980540;28;103060;-69
2023/07/04 01:19:46;;;;;;;4.25;2.50;;;;;;;20.76;66.78;98488.69;4977391;28;103320;-69
2023/07/04 01:22:21;;;;;;;2.50;2.13;;;;;;;20.70;67.91;98494.78;4970714;28;104375;-69
2023/07/04 01:24:59;;;;;;;3.20;2.10;;;;;;;20.64;68.25;98488.28;4971588;28;102905;-69
2023/07/04 01:27:30;;;;;;;3.50;2.47;;;;;;;20.69;68.15;98488.56;4978854;28;104266;-69
2023/07/04 01:30:04;;;;;;;2.35;2.00;;;;;;;20.75;67.78;98490.56;4973573;28;103267;-69
2023/07/04 01:32:42;;;;;;;3.63;2.43;;;;;;;20.09;70.53;98496.50;4973621;28;104294;-70
2023/07/04 01:35:13;;;;;;;3.20;2.00;;;;;;;20.64;68.42;98490.13;4979159;28;102786;-69
2023/07/04 01:37:41;;;;;;;3.20;2.20;;;;;;;20.45;68.96;98486.09;4972712;28;103185;-70
2023/07/04 01:40:10;;;;;;;3.20;2.37;;;;;;;20.30;70.00;98492.38;4974649;28;103301;-70
2023/07/04 01:42:40;;;;;;;4.57;2.33;;;;;;;20.61;68.46;98488.66;4986623;28;103193;-70
2023/07/04 01:45:10;;;;;;;2.83;2.08;;;;;;;20.55;68.93;98496.56;4969266;28;102720;-70
2023/07/04 01:47:38;;;;;;;2.17;1.95;;;;;;;20.59;68.70;98498.72;4973050;28;102864;-70
2023/07/04 01:50:09;;;;;;;2.30;2.03;;;;;;;20.59;68.67;98493.38;4975173;28;103406;-70
2023/07/04 01:52:37;;;;;;;3.33;2.20;;;;;;;20.53;69.03;98494.06;4974014;28;103314;-70
2023/07/04 01:55:07;;;;;;;3.40;2.22;;;;;;;20.65;68.63;98486.44;4987034;28;103917;-70
2023/07/04 01:57:35;;;;;;;2.47;1.90;;;;;;;20.94;67.05;98491.09;4973011;28;102831;-70
2023/07/04 02:00:08;;;;;;;2.08;1.70;;;;;;;21.12;66.09;98492.44;4968123;28;103231;-70
2023/07/04 02:02:57;;;;;;;2.10;1.60;;;;;;;21.22;65.58;98498.38;4967247;28;103665;-70
2023/07/04 02:05:26;;;;;;;1.70;1.60;;;;;;;21.26;65.53;98490.78;4969249;28;102889;-70
2023/07/04 02:07:54;;;;;;;2.42;1.80;;;;;;;21.25;65.07;98492.66;4970619;28;102868;-69
2023/07/04 02:10:23;;;;;;;3.10;2.20;;;;;;;21.14;66.04;98498.47;4969684;28;103278;-69
2023/07/04 02:12:51;;;;;;;3.10;2.20;;;;;;;21.04;66.72;98495.19;4971809;28;103260;-69
2023/07/04 02:15:20;;;;;;;2.17;1.90;;;;;;;21.00;66.42;98496.53;4973485;28;103015;-69
2023/07/04 02:17:48;;;;;;;2.47;2.07;;;;;;;20.40;68.73;98499.19;4973572;28;104742;-69
2023/07/04 02:20:17;;;;;;;2.50;1.92;;;;;;;20.69;67.73;98488.56;4972813;28;103295;-69
2023/07/04 02:22:45;;;;;;;2.00;1.75;;;;;;;21.04;66.65;98492.50;4973994;28;103237;-69
2023/07/04 02:25:13;;;;;;;1.60;1.50;;;;;;;21.15;65.67;98494.78;4972280;28;102999;-69
2023/07/04 02:27:41;;;;;;;1.42;1.30;;;;;;;21.23;65.49;98494.69;4971995;28;102991;-69
2023/07/04 02:30:10;;;;;;;1.92;1.73;;;;;;;21.29;65.24;98490.44;4975999;28;104447;-69
2023/07/04 02:32:39;;;;;;;2.08;1.67;;;;;;;21.17;65.86;98498.09;4973998;28;103542;-69
2023/07/04 02:35:08;;;;;;;2.15;1.95;;;;;;;21.15;66.22;98500.13;4971779;28;102694;-70
2023/07/04 02:37:40;;;;;;;2.80;1.77;;;;;;;21.14;66.27;98493.09;4968686;28;103628;-69
2023/07/04 02:40:10;;;;;;;2.80;2.00;;;;;;;21.09;66.52;98490.13;4974057;28;104099;-69
2023/07/04 02:42:38;;;;;;;2.13;1.92;;;;;;;21.11;66.43;98488.06;4966165;28;103195;-69
2023/07/04 02:45:08;;;;;;;2.22;1.55;;;;;;;21.05;66.77;98494.13;4972944;28;102973;-69
2023/07/04 02:47:37;;;;;;;2.42;1.98;;;;;;;21.05;66.92;98499.50;4974882;28;104060;-69
2023/07/04 02:50:11;;;;;;;2.30;2.00;;;;;;;20.85;67.75;98497.53;4971660;28;105087;-69
2023/07/04 02:52:41;;;;;;;2.35;2.00;;;;;;;20.99;67.23;98494.91;4973411;28;103612;-69
2023/07/04 02:55:09;;;;;;;2.70;1.90;;;;;;;21.10;66.91;98497.19;4990357;28;102758;-70
2023/07/04 02:57:37;;;;;;;2.60;1.80;;;;;;;20.86;67.88;98500.03;4972424;28;102805;-69
2023/07/04 03:00:07;;;;;;;3.17;2.30;;;;;;;20.79;68.33;98502.59;4973942;28;103590;-69
2023/07/04 03:02:36;;;;;;;2.00;1.70;;;;;;;20.94;67.10;98501.81;4972425;28;104318;-70
2023/07/04 03:05:06;;;;;;;2.53;1.67;;;;;;;21.03;66.83;98506.91;4968912;28;102853;-69
2023/07/04 03:07:36;;;;;;;2.03;1.80;;;;;;;20.85;68.08;98509.09;4972727;28;104295;-70
2023/07/04 03:10:06;;;;;;;2.37;2.07;;;;;;;20.84;67.62;98507.44;4974523;28;103951;-69
2023/07/04 03:12:34;;;;;;;3.55;1.98;;;;;;;20.59;69.10;98520.19;4970983;28;103581;-69
2023/07/04 03:15:06;;;;;;;2.17;1.90;;;;;;;20.70;68.41;98516.25;4980800;28;103066;-69
2023/07/04 03:17:38;;;;;;;1.90;1.70;;;;;;;20.86;68.18;98515.28;4965946;28;103075;-68
2023/07/04 03:20:10;;;;;;;2.20;1.80;;;;;;;20.83;68.39;98517.31;4974433;28;103736;-72
2023/07/04 03:22:42;;;;;;;2.50;2.00;;;;;;;20.66;68.20;98521.13;4974620;28;103267;-71
2023/07/04 03:25:12;;;;;;;2.75;1.83;;;;;;;20.78;68.00;98514.34;4974182;28;103148;-71
2023/07/04 03:27:41;;;;;;;2.90;2.10;;;;;;;20.48;69.21;98525.13;4964568;28;102788;-71
2023/07/04 03:30:12;;;;;;;2.13;1.80;;;;;;;20.68;68.19;98524.50;4970902;28;103586;-71
2023/07/04 03:32:42;;;;;;;1.87;1.70;;;;;;;20.61;68.43;98528.06;4969625;28;103226;-71
2023/07/04 03:35:11;;;;;;;2.30;2.10;;;;;;;20.56;69.14;98525.09;4974727;28;103030;-71
2023/07/04 03:37:44;;;;;;;3.42;2.10;;;;;;;20.36;69.83;98518.50;4970287;28;102926;-71
2023/07/04 03:40:14;;;;;;;2.70;1.88;;;;;;;20.43;69.81;98520.31;4972603;28;104007;-71
2023/07/04 03:42:42;;;;;;;1.92;1.70;;;;;;;20.45;69.28;98515.59;4970904;28;104447;-71
2023/07/04 03:45:12;;;;;;;2.97;1.70;;;;;;;20.33;69.67;98518.84;4972329;28;102818;-71
2023/07/04 03:47:40;;;;;;;2.00;1.77;;;;;;;20.69;68.72;98523.47;4971054;28;104113;-71
2023/07/04 03:50:13;;;;;;;3.63;1.70;;;;;;;20.81;68.07;98519.38;4968171;28;103834;-63
2023/07/04 03:52:45;;;;;;;2.92;1.73;;;;;;;20.78;68.13;98511.66;4973597;28;105236;-77
2023/07/04 03:55:13;;;;;;;2.08;1.77;;;;;;;20.77;68.12;98520.72;4974442;28;102692;-77
2023/07/04 03:57:41;;;;;;;1.93;1.50;;;;;;;20.76;68.25;98528.97;4976349;28;103044;-78
2023/07/04 04:00:11;;;;;;;1.65;1.40;;;;;;;20.86;67.84;98521.50;4968636;28;104433;-78
2023/07/04 04:02:57;;;;;;;2.05;1.65;;;;;;;20.80;67.92;98523.06;4972847;28;103149;-77
2023/07/04 04:05:26;;;;;;;3.15;1.83;;;;;;;20.67;68.23;98528.19;4976874;28;102784;-77
2023/07/04 04:07:56;;;;;;;2.00;1.70;;;;;;;20.76;68.30;98520.91;4979774;28;103053;-77
2023/07/04 04:10:24;;;;;;;2.17;1.85;;;;;;;20.84;67.19;98523.53;4974174;28;103294;-77
2023/07/04 04:12:53;;;;;;;2.60;1.50;;;;;;;20.88;67.65;98514.13;4971539;28;103914;-77
2023/07/04 04:15:21;;;;;;;2.05;1.73;;;;;;;20.98;67.37;98514.69;4973102;28;102724;-77
2023/07/04 04:17:49;;;;;;;2.33;2.03;;;;;;;20.97;67.16;98513.00;4971435;28;104045;-78
2023/07/04 04:20:17;;;;;;;1.83;1.60;;;;;;;21.07;67.21;98521.72;4973727;28;103425;-77
2023/07/04 04:22:46;;;;;;;2.65;1.60;;;;;;;21.10;67.04;98517.81;4980726;28;103342;-78
2023/07/04 04:25:17;;;;;;;2.73;1.90;;;;;;;21.12;66.98;98522.00;4972176;28;102854;-76
2023/07/04 04:27:46;;;;;;;2.55;1.60;;;;;;;21.08;67.35;98514.50;4976638;28;102983;-77
2023/07/04 04:30:15;;;;;;;2.72;1.80;;;;;;;20.95;68.07;98519.59;4976800;28;103214;-77
2023/07/04 04:32:44;;;;;;;2.80;1.60;;;;;;;20.89;68.37;98528.34;4974241;28;102974;-77
2023/07/04 04:35:13;;;;;;;2.17;1.73;;;;;;;20.83;68.68;98532.59;4970309;28;102901;-69
2023/07/04 04:37:41;;;;;;;3.28;1.90;;;;;;;21.00;68.28;98527.94;4976917;28;102959;-76
2023/07/04 04:40:10;;;;;;;2.20;1.70;;;;;;;20.97;68.03;98522.94;4969795;28;103307;-77
2023/07/04 04:42:39;;;;;;;2.50;2.30;;;;;;;20.37;70.52;98526.38;4973651;28;103223;-77
2023/07/04 04:45:09;;;;;;;2.92;1.90;;;;;;;20.63;69.44;98532.22;4970882;28;103224;-76
2023/07/04 04:47:37;;;;;;;2.15;1.63;;;;;;;20.75;69.32;98529.97;4975790;28;102918;-77
2023/07/04 04:50:06;;;;;;;1.98;1.80;;;;;;;20.87;69.19;98541.97;4970007;28;103405;-77
2023/07/04 04:52:37;;;;;;;3.00;1.90;;;;;;;21.16;68.19;98536.75;4964102;28;103173;-77
2023/07/04 04:55:07;;;;;;;2.40;1.95;;;;;;;20.77;69.49;98544.88;4971941;28;102850;-76
2023/07/04 04:57:35;;;;;;;1.70;1.50;;;;;;;21.09;68.29;98543.84;4972728;28;102792;-77
2023/07/04 05:00:07;;;;;;;2.00;1.80;;;;;;;21.26;67.26;98548.06;4972807;28;103265;-76
2023/07/04 05:02:35;;;;;;;3.80;1.83;;;;;;;21.17;67.65;98546.44;4976820;28;103199;-76
2023/07/04 05:05:04;;;;;;;2.67;1.85;;;;;;;21.24;68.00;98552.78;4970665;28;103470;-76
2023/07/04 05:07:32;;;;;;;1.98;1.80;;;;;;;21.35;67.62;98541.59;4972682;28;102846;-76
2023/07/04 05:10:00;;;;;;;2.60;1.90;;;;;;;21.42;66.66;98549.75;4976081;28;103880;-76
2023/07/04 05:12:28;;;;;;;1.97;1.77;;;;;;;21.26;67.50;98548.06;4977145;28;103215;-76
2023/07/04 05:14:56;;;;;;;2.30;2.05;;;;;;;21.26;67.75;98555.28;4972517;28;102789;-76
2023/07/04 05:17:25;;;;;;;1.90;1.30;;;;;;;21.64;66.91;98548.84;4968678;28;104688;-75
2023/07/04 05:19:53;;;;;;;3.30;2.00;;;;;;;21.54;67.01;98555.50;4966255;28;104410;-74
2023/07/04 05:22:23;;;;;;;2.28;1.83;;;;;;;21.78;65.79;98557.97;4974930;28;103173;-76
2023/07/04 05:24:52;;;;;;;2.50;1.92;;;;;;;21.96;65.47;98555.75;4971973;28;102750;-76
2023/07/04 05:27:20;;;;;;;2.80;2.50;;;;;;;22.06;65.16;98558.16;4966324;28;102783;-76
2023/07/04 05:29:48;;;;;;;2.65;1.98;;;;;;;21.82;65.46;98561.94;4970392;28;104518;-76
2023/07/04 05:32:16;;;;;;;1.80;1.58;;;;;;;22.02;64.54;98563.06;4967341;28;103218;-76
2023/07/04 05:34:48;;;;;;;3.37;2.10;;;;;;;21.74;65.34;98562.03;4968525;28;102835;-76
2023/07/04 05:37:17;;;;;;;2.25;1.60;;;;;;;22.03;64.66;98559.38;4975305;28;102771;-77
2023/07/04 05:39:46;;;;;;;2.13;1.88;;;;;;;22.05;64.33;98560.03;4972887;28;103550;-76
2023/07/04 05:42:14;;;;;;;2.97;2.20;;;;;;;21.74;65.94;98560.19;4975512;28;103210;-77
2023/07/04 05:44:42;;;;;;;3.08;2.10;;;;;;;22.09;63.88;98563.97;4976820;28;102681;-76
2023/07/04 05:47:10;;;;;;;3.63;2.00;;;;;;;22.27;63.72;98560.91;4972427;28;103106;-76
2023/07/04 05:49:38;;;;;;;2.40;1.90;;;;;;;22.01;64.71;98556.03;4979404;28;103570;-77
2023/07/04 05:52:08;;;;;;;3.33;2.13;;;;;;;22.07;64.12;98566.03;4976720;28;103719;-76
2023/07/04 05:54:39;;;;;;;3.78;2.05;;;;;;;22.19;63.65;98564.56;4977794;28;102949;-76
2023/07/04 05:57:07;;;;;;;2.53;1.83;;;;;;;22.26;63.11;98565.44;4986155;28;102800;-77
2023/07/04 05:59:35;;;;;;;2.35;1.85;;;;;;;22.33;63.55;98568.25;4978384;28;103256;-76
2023/07/04 06:02:03;;;;;;;4.03;2.10;;;;;;;22.35;62.84;98567.03;4979542;28;103175;-77
2023/07/04 06:04:31;;;;;;;3.60;2.20;;;;;;;22.06;63.74;98566.25;4975486;28;102659;-76
2023/07/04 06:07:02;;;;;;;3.10;2.40;;;;;;;22.41;62.18;98568.97;4981912;28;102829;-77
2023/07/04 06:09:32;;;;;;;4.60;2.25;;;;;;;22.66;61.78;98571.34;4980690;28;103062;-78
2023/07/04 06:12:00;;;;;;;2.42;1.98;;;;;;;22.57;61.06;98572.47;4967302;28;103205;-77
2023/07/04 06:14:30;;;;;;;3.30;2.28;;;;;;;22.67;61.55;98576.56;4979139;28;102789;-72
2023/07/04 06:17:04;;;;;;;3.85;2.47;;;;;;;22.56;61.17;98570.78;4976571;28;102662;-74
2023/07/04 06:19:33;;;;;;;3.03;2.10;;;;;;;22.82;60.74;98581.91;4973183;28;104359;-71
2023/07/04 06:22:05;;;;;;;2.85;1.85;;;;;;;23.51;59.99;98566.81;4971367;28;103364;-77
2023/07/04 06:24:36;;;;;;;3.37;2.17;;;;;;;23.27;58.63;98570.72;4969971;28;102863;-76
2023/07/04 06:27:05;;;;;;;2.85;2.38;;;;;;;23.47;58.55;98568.22;4977164;28;102802;-70
2023/07/04 06:29:33;;;;;;;4.95;2.40;;;;;;;23.39;57.40;98573.75;4975461;28;103321;-70
2023/07/04 06:32:01;;;;;;;4.00;2.53;;;;;;;23.12;58.19;98558.34;4970150;28;103229;-70
2023/07/04 06:34:29;;;;;;;3.63;2.33;;;;;;;23.14;58.19;98567.91;4975964;28;102703;-71
2023/07/04 06:36:57;;;;;;;5.25;2.80;;;;;;;23.23;56.45;98574.00;4970012;28;102778;-70
2023/07/04 06:39:25;;;;;;;3.67;2.40;;;;;;;23.25;56.05;98572.78;4964407;28;105042;-70
2023/07/04 06:41:54;;;;;;;3.85;2.33;;;;;;;23.44;55.18;98572.13;4977605;28;102999;-77
2023/07/04 06:44:32;;;;;;;3.75;2.58;;;;;;;23.82;54.37;98582.56;4969604;28;103028;-76
2023/07/04 06:47:00;;;;;;;3.35;2.60;;;;;;;23.61;55.08;98581.59;4971737;28;103069;-71
2023/07/04 06:49:28;;;;;;;5.03;2.50;;;;;;;22.82;55.50;98581.91;4972153;28;103299;-70
2023/07/04 06:51:56;;;;;;;3.58;2.38;;;;;;;23.48;54.32;98577.97;4974336;28;103232;-70
2023/07/04 06:54:24;;;;;;;3.58;2.20;;;;;;;24.02;52.55;98586.22;4965891;28;103012;-71
2023/07/04 06:56:53;;;;;;;3.97;2.50;;;;;;;23.92;52.16;98586.56;4977411;28;102771;-71
2023/07/04 06:59:21;;;;;;;4.18;2.42;;;;;;;23.87;50.61;98582.81;4971615;28;103327;-71
2023/07/04 07:01:49;;;;;;;5.38;2.65;;;;;;;23.86;50.42;98587.38;4966361;28;103212;-71
2023/07/04 07:04:23;;;;;;;5.40;3.10;;;;;;;23.25;52.07;98588.94;4976188;28;102902;-75
2023/07/04 07:06:51;;;;;;;4.63;2.88;;;;;;;23.66;50.06;98592.63;4971658;28;102931;-76
2023/07/04 07:09:19;;;;;;;6.20;3.30;;;;;;;23.80;49.56;98598.13;4968112;28;103277;-76
2023/07/04 07:11:47;;;;;;;3.83;2.90;;;;;;;24.41;48.95;98604.53;4966935;28;103510;-76
2023/07/04 07:14:17;;;;;;;4.63;2.92;;;;;;;24.10;49.12;98596.91;4970584;28;102676;-71
2023/07/04 07:16:45;;;;;;;7.32;3.65;;;;;;;24.00;49.28;98604.50;4977996;28;103460;-76
2023/07/04 07:19:13;;;;;;;4.60;2.92;;;;;;;24.26;48.48;98610.06;4974904;28;103325;-71
2023/07/04 07:21:43;;;;;;;6.55;2.92;;;;;;;24.22;48.48;98606.09;4970451;28;103312;-71
2023/07/04 07:24:12;;;;;;;5.27;3.00;;;;;;;24.55;46.61;98607.09;4971503;28;102931;-76
2023/07/04 07:26:40;;;;;;;4.78;2.95;;;;;;;24.54;47.84;98609.97;4972802;28;102650;-71
2023/07/04 07:29:08;;;;;;;3.37;2.47;;;;;;;24.63;48.43;98614.16;4970160;28;104026;-71
2023/07/04 07:31:38;;;;;;;4.87;3.00;;;;;;;24.58;48.16;98609.38;4967096;28;103466;-71
2023/07/04 07:34:07;;;;;;;3.83;2.50;;;;;;;24.70;47.83;98615.84;4967948;28;103310;-70
2023/07/04 07:36:37;;;;;;;6.40;3.08;;;;;;;24.36;47.19;98610.53;4980978;28;103037;-76
2023/07/04 07:39:09;;;;;;;4.68;2.88;;;;;;;25.11;46.63;98609.56;4971909;28;103440;-75
2023/07/04 07:41:40;;;;;;;5.30;2.85;;;;;;;25.02;46.98;98599.97;4975659;28;103228;-73
2023/07/04 07:44:10;;;;;;;5.60;3.00;;;;;;;25.29;45.71;98607.09;4972806;28;102942;-75
2023/07/04 07:46:41;;;;;;;4.80;3.10;;;;;;;25.52;46.37;98595.91;4970011;28;103970;-70
2023/07/04 07:49:10;;;;;;;5.18;3.00;;;;;;;25.09;46.47;98600.84;4973191;28;102824;-76
2023/07/04 07:51:40;;;;;;;5.28;2.80;;;;;;;25.70;45.76;98594.25;4970118;28;103610;-73
2023/07/04 07:54:10;;;;;;;7.65;3.65;;;;;;;24.35;47.81;98597.22;4972710;28;102635;-75
2023/07/04 07:56:44;;;;;;;7.68;3.60;;;;;;;25.13;46.49;98597.50;4975966;28;104048;-71
2023/07/04 07:59:20;;;;;;;4.38;2.88;;;;;;;26.02;44.44;98591.69;4970719;28;102997;-76
2023/07/04 08:01:54;;;;;;;6.63;4.13;;;;;;;25.77;44.04;98600.47;4972275;28;103039;-72
2023/07/04 08:04:22;;;;;;;6.35;3.50;;;;;;;25.50;44.18;98593.41;4975346;28;102699;-75
2023/07/04 08:06:50;;;;;;;7.10;3.75;;;;;;;24.33;45.85;98600.16;4973946;28;103009;-75
2023/07/04 08:09:20;;;;;;;5.68;3.63;;;;;;;24.52;47.13;98599.38;4970355;28;103367;-71
2023/07/04 08:11:49;;;;;;;6.90;3.80;;;;;;;25.45;47.15;98586.94;4972277;28;103115;-70
2023/07/04 08:14:21;;;;;;;6.88;3.28;;;;;;;25.56;46.05;98587.19;4978028;28;103457;-70
2023/07/04 08:16:56;;;;;;;6.82;3.67;;;;;;;24.54;46.85;98591.91;4977070;28;102846;-73
2023/07/04 08:19:25;;;;;;;5.65;3.28;;;;;;;25.57;45.67;98588.81;4978116;28;103417;-72
2023/07/04 08:21:57;;;;;;;6.40;3.97;;;;;;;25.66;44.85;98587.56;4969955;28;103237;-72
2023/07/04 08:24:25;;;;;;;5.25;3.60;;;;;;;26.48;43.86;98589.69;4976019;28;102697;-77
2023/07/04 08:26:55;;;;;;;7.10;4.33;;;;;;;26.04;43.87;98581.47;4974818;28;102872;-76
2023/07/04 08:29:23;;;;;;;4.57;3.30;;;;;;;26.59;44.13;98577.34;4971332;28;103276;-73
2023/07/04 08:31:56;;;;;;;4.40;3.38;;;;;;;26.74;44.11;98581.47;4975835;28;103330;-72
2023/07/04 08:34:24;;;;;;;6.23;3.50;;;;;;;27.24;42.27;98582.41;4974854;28;102935;-76
2023/07/04 08:36:59;;;;;;;9.25;3.70;;;;;;;26.70;43.21;98588.34;4971854;28;102750;-70
2023/07/04 08:39:27;;;;;;;7.63;3.88;;;;;;;26.85;43.71;98586.22;4969865;28;103319;-76
2023/07/04 08:41:59;;;;;;;5.17;3.40;;;;;;;26.86;43.44;98593.28;4970625;28;103375;-71
2023/07/04 08:44:36;;;;;;;7.23;3.80;;;;;;;26.40;44.96;98590.78;4974324;28;102884;-70
2023/07/04 08:47:08;;;;;;;6.27;3.80;;;;;;;27.12;43.34;98595.00;4971044;28;104078;-71
2023/07/04 08:49:41;;;;;;;7.55;4.25;;;;;;;26.88;42.39;98593.91;4967014;28;103102;-75
2023/07/04 08:52:16;;;;;;;7.13;4.20;;;;;;;26.85;41.57;98588.94;4970358;28;103592;-72
2023/07/04 08:54:45;;;;;;;5.53;3.83;;;;;;;27.87;42.15;98585.88;4972763;28;103314;-72
2023/07/04 08:57:35;;;;;;;5.80;4.25;;;;;;;27.15;41.95;98589.16;4972659;28;104416;-77
2023/07/04 09:00:13;;;;;;;5.25;3.70;;;;;;;28.24;41.77;98588.66;4964972;28;103244;-73
2023/07/04 09:03:03;;;;;;;6.30;4.07;;;;;;;28.52;40.38;98592.50;4972878;28;103333;-76
2023/07/04 09:05:47;;;;;;;6.70;4.35;;;;;;;27.76;40.53;98586.63;4970911;28;102715;-76
2023/07/04 09:08:26;;;;;;;5.38;4.47;;;;;;;28.00;39.65;98588.47;4974238;28;104403;-74
2023/07/04 09:11:00;;;;;;;6.00;3.85;;;;;;;28.03;40.56;98590.75;4973186;28;103404;-76
2023/07/04 09:13:32;;;;;;;6.65;4.40;;;;;;;26.42;42.23;98587.84;4977614;28;103179;-76
2023/07/04 09:16:05;;;;;;;6.90;4.30;;;;;;;25.76;43.54;98589.88;4976122;28;102834;-76
2023/07/04 09:18:42;;;;;;;5.55;4.15;;;;;;;26.92;42.62;98580.78;4976790;28;102819;-71
2023/07/04 09:21:12;;;;;;;7.55;4.63;;;;;;;25.29;44.99;98596.28;4977360;28;103252;-71
2023/07/04 09:23:42;;;;;;;8.90;4.50;;;;;;;25.81;45.24;98590.91;4974321;28;103170;-71
2023/07/04 09:26:13;;;;;;;12.82;5.60;;;;;;;25.66;45.02;98587.56;4975033;28;102879;-77
2023/07/04 09:28:45;;;;;;;9.82;4.68;;;;;;;25.94;43.93;98590.88;4974666;28;102796;-73
2023/07/04 09:31:19;;;;;;;9.90;5.00;;;;;;;25.82;44.51;98592.56;4979459;28;103738;-76
2023/07/04 09:34:13;;;;;;;9.30;4.43;;;;;;;26.62;43.07;98580.47;4974881;28;104258;-75
2023/07/04 09:36:42;;;;;;;6.25;4.28;;;;;;;26.72;43.04;98583.56;4999185;28;102978;-73
2023/07/04 09:39:10;;;;;;;9.67;4.77;;;;;;;26.48;43.46;98576.16;4980062;28;102759;-75
2023/07/04 09:41:40;;;;;;;5.10;3.97;;;;;;;28.07;42.86;98578.38;4974606;28;103452;-75
2023/07/04 09:44:29;;;;;;;7.80;4.63;;;;;;;27.20;42.28;98580.38;4976501;28;103381;-70
2023/07/04 09:47:01;;;;;;;6.57;4.43;;;;;;;27.24;41.79;98585.13;4977778;28;103233;-71
2023/07/04 09:49:33;;;;;;;7.03;4.28;;;;;;;27.19;41.30;98576.84;4978565;28;102588;-76
2023/07/04 09:52:04;;;;;;;5.43;4.23;;;;;;;27.50;41.04;98581.44;4970875;28;103989;-76
2023/07/04 09:54:35;;;;;;;7.78;4.30;;;;;;;28.89;39.37;98576.97;4978020;28;103004;-70
2023/07/04 09:57:19;;;;;;;5.50;4.03;;;;;;;29.82;38.86;98574.50;4977523;28;103976;-71
2023/07/04 09:59:48;;;;;;;7.22;4.40;;;;;;;30.29;38.28;98567.94;4976719;28;103205;-71
2023/07/04 10:02:20;;;;;;;5.93;4.50;;;;;;;29.21;37.67;98569.41;4973283;28;103275;-75
2023/07/04 10:04:50;;;;;;;5.15;4.25;;;;;;;30.15;37.99;98560.28;4979116;28;103588;-75
2023/07/04 10:07:23;;;;;;;6.95;5.05;;;;;;;30.87;36.27;98558.78;4971044;28;103098;-75
2023/07/04 10:09:58;;;;;;;7.13;5.43;;;;;;;28.83;38.08;98572.47;4976837;28;102702;-76
2023/07/04 10:12:32;;;;;;;5.75;4.60;;;;;;;30.58;36.50;98568.00;4978239;28;103616;-70
2023/07/04 10:15:01;;;;;;;6.13;4.50;;;;;;;31.15;34.39;98553.34;4971006;28;103257;-74
2023/07/04 10:17:39;;;;;;;6.80;5.07;;;;;;;29.09;37.81;98561.22;4978548;28;103058;-77
2023/07/04 10:20:13;;;;;;;4.68;3.90;;;;;;;30.38;36.66;98561.09;4972206;28;103918;-77
2023/07/04 10:22:47;;;;;;;6.18;4.38;;;;;;;29.33;38.75;98558.59;4967571;28;103531;-70
2023/07/04 10:25:18;;;;;;;8.05;4.60;;;;;;;28.24;38.65;98561.50;4979020;28;103208;-75
2023/07/04 10:27:50;;;;;;;7.38;4.80;;;;;;;28.69;37.45;98554.66;4972568;28;102682;-77
2023/07/04 10:30:22;;;;;;;7.35;5.30;;;;;;;26.61;41.76;98553.59;4974958;28;102621;-78
2023/07/04 10:32:56;;;;;;;8.23;4.88;;;;;;;27.05;40.95;98551.69;4975234;28;103270;-78
2023/07/04 10:35:30;;;;;;;7.50;5.05;;;;;;;25.71;42.72;98555.31;4968602;28;103396;-77
2023/07/04 10:38:01;;;;;;;7.57;4.87;;;;;;;26.48;41.94;98549.06;4966641;28;103122;-77
2023/07/04 10:40:30;;;;;;;5.10;4.07;;;;;;;27.84;39.94;98544.78;4958462;28;102754;-77
2023/07/04 10:43:02;;;;;;;4.93;4.10;;;;;;;28.37;38.63;98547.75;4962474;28;103977;-74
2023/07/04 10:45:32;;;;;;;7.25;5.80;;;;;;;27.78;37.97;98540.25;4973112;28;103172;-78
2023/07/04 10:48:04;;;;;;;5.68;4.97;;;;;;;29.06;37.11;98539.91;4977162;28;103054;-71
2023/07/04 10:50:40;;;;;;;8.93;5.50;;;;;;;27.16;40.52;98542.03;4976304;28;102750;-70
2023/07/04 10:53:08;;;;;;;7.35;6.20;;;;;;;28.24;38.04;98539.78;4975375;28;103272;-73
2023/07/04 10:55:45;;;;;;;7.63;5.80;;;;;;;28.55;37.17;98536.84;4982404;28;103185;-76
2023/07/04 10:58:17;;;;;;;7.47;5.63;;;;;;;29.21;36.87;98525.88;4980825;28;103746;-71
2023/07/04 11:00:51;;;;;;;6.90;5.38;;;;;;;29.11;35.06;98531.88;4981392;28;102929;-77
2023/07/04 11:03:25;;;;;;;6.35;5.60;;;;;;;29.75;34.63;98528.34;4977913;28;103295;-75
2023/07/04 11:05:58;;;;;;;6.38;5.78;;;;;;;30.01;36.67;98526.22;4977503;28;103164;-76
2023/07/04 11:08:35;;;;;;;6.65;5.53;;;;;;;29.40;36.60;98529.38;4975547;28;104171;-70
2023/07/04 11:11:08;;;;;;;6.95;5.97;;;;;;;30.73;36.09;98527.44;4979594;28;103094;-71
2023/07/04 11:13:46;;;;;;;8.87;5.60;;;;;;;30.54;34.84;98536.88;4981380;28;103225;-75
2023/07/04 11:16:24;;;;;;;6.72;5.38;;;;;;;31.92;32.53;98520.72;4980261;28;103452;-76
2023/07/04 11:19:05;;;;;;;7.25;6.15;;;;;;;28.84;35.61;98524.38;4980623;28;102952;-76
2023/07/04 11:21:53;;;;;;;6.47;5.63;;;;;;;30.44;34.46;98519.25;4976434;28;102917;-70
2023/07/04 11:24:34;;;;;;;7.63;5.77;;;;;;;28.86;35.67;98525.78;4976112;28;103005;-72
2023/07/04 11:27:05;;;;;;;6.47;5.70;;;;;;;29.37;35.58;98525.22;4976351;28;103492;-77
2023/07/04 11:29:49;;;;;;;6.47;5.50;;;;;;;29.89;34.54;98520.78;4971562;28;102724;-78
2023/07/04 11:32:19;;;;;;;8.10;6.18;;;;;;;29.88;34.81;98524.53;4970745;28;103450;-69
2023/07/04 11:34:50;;;;;;;7.57;5.80;;;;;;;29.93;34.37;98516.47;4977376;28;103715;-70
2023/07/04 11:37:25;;;;;;;6.50;5.65;;;;;;;29.27;34.76;98525.81;4974794;28;103706;-70
2023/07/04 11:39:57;;;;;;;7.60;6.10;;;;;;;28.62;34.67;98524.03;4972652;28;102617;-70
2023/07/04 11:42:33;;;;;;;6.93;6.00;;;;;;;27.82;37.09;98526.00;4970059;28;104831;-69